Meadow, UT

5:38 PM MST on March 02, 2015 (GMT -0700)
MesoWest Clearspot UT US UUNET | Change Station
CLOSE
Current Station
Personal Weather Station
Location: Fillmore, UT
Elevation: 4806 ft
Nearby Weather Stations

Elev 4806 ft 38.83 °N, 112.67 °W | Updated 38 minutes ago

Overcast
Overcast
39 °F
Feels Like 28 °F
N
27
Wind Variable Wind from SSW
Gusts 41.0 mph

Today
High -- | Low -- °F
--% Chance of Precip.
Yesterday
High -- | Low -- °F
Precip. -- in
7:00 AM 6:23 PM
Waxing Gibbous, 93% visible
Pressure 29.72 in
Visibility 10.0 miles
Clouds Few 5000 ft
Scattered Clouds 6000 ft
Mostly Cloudy 8000 ft
Windchill 28 °F
Dew Point 32 °F
Humidity 78%
Rainfall -999.00 in
Snow Depth Not available.
UV 1 out of 12
Pollen .70 out of 12
Air Quality Not available.
Flu Activity Not available.
METAR KMLF 022352Z AUTO 20022KT 10SM FEW050 SCT060 BKN080 02/M01 A2971 RMK AO2 PK WND 21029/2325 SNE2253 SLP062 P0000 60005 T00221006 10022 20006 51016 TSNO

More Conditions Fewer Conditions

Pressure 29.72 in
Visibility 10.0 miles
Clouds Few 5000 ft
Scattered Clouds 6000 ft
Mostly Cloudy 8000 ft
Windchill 28 °F
Dew Point 32 °F
Humidity 78%
Rainfall -999.00 in
Snow Depth Not available.
UV 1 out of 12
Pollen .70 out of 12
Air Quality Not available.
Flu Activity Not available.
METAR KMLF 022352Z AUTO 20022KT 10SM FEW050 SCT060 BKN080 02/M01 A2971 RMK AO2 PK WND 21029/2325 SNE2253 SLP062 P0000 60005 T00221006 10022 20006 51016 TSNO

More Conditions Fewer Conditions

10-Day Weather Forecast

Almanac

Astronomy

Mar. 02, 2015 Rise Set
Actual Time
Civil Twilight
Nautical Twilight
Astronomical Twilight
Moon
Length of Visible Light
Length of Day
Tomorrow will be .
, % of the Moon is Illuminated

Today's Extremes

State Highs State Lows

Community

WunderPhotos

Upload Photos

1,802,006 photos uploaded!

WunderBlogs® & News

Nearby

Air Quality

  Air Quality AQ Index Pollutant
Not available.

Snow Depth

Station Depth Elevation

Earthquake Activity

City Distance Mag. Time & Date
Minimum magnitude displayed is 2.5.

Coastal Water Temperatures

Place Temperature

Nearby Weather Stations